sensor_id;sensor_type;location;lat;lon;timestamp;pressure;altitude;pressure_sealevel;temperature;humidity
77011;BME280;65945;53.148;17.956;2023-06-04T00:00:56;101794.53;;;6.58;62.17
77011;BME280;65945;53.148;17.956;2023-06-04T00:03:44;101795.16;;;6.53;62.68
77011;BME280;65945;53.148;17.956;2023-06-04T00:06:11;101793.15;;;6.47;63.23
77011;BME280;65945;53.148;17.956;2023-06-04T00:08:37;101791.86;;;6.42;62.92
77011;BME280;65945;53.148;17.956;2023-06-04T00:11:04;101786.20;;;6.38;62.61
77011;BME280;65945;53.148;17.956;2023-06-04T00:13:31;101784.47;;;6.36;62.65
77011;BME280;65945;53.148;17.956;2023-06-04T00:15:57;101782.64;;;6.35;62.86
77011;BME280;65945;53.148;17.956;2023-06-04T00:18:24;101784.31;;;6.34;63.05
77011;BME280;65945;53.148;17.956;2023-06-04T00:20:51;101782.23;;;6.32;63.12
77011;BME280;65945;53.148;17.956;2023-06-04T00:23:17;101780.73;;;6.29;63.19
77011;BME280;65945;53.148;17.956;2023-06-04T00:25:44;101778.10;;;6.26;63.36
77011;BME280;65945;53.148;17.956;2023-06-04T00:28:10;101776.84;;;6.21;63.52
77011;BME280;65945;53.148;17.956;2023-06-04T00:30:37;101777.45;;;6.17;64.34
77011;BME280;65945;53.148;17.956;2023-06-04T00:33:04;101778.67;;;6.11;64.35
77011;BME280;65945;53.148;17.956;2023-06-04T00:35:32;101775.13;;;6.04;64.10
77011;BME280;65945;53.148;17.956;2023-06-04T00:37:58;101768.20;;;5.99;64.54
77011;BME280;65945;53.148;17.956;2023-06-04T00:40:26;101765.58;;;5.94;64.61
77011;BME280;65945;53.148;17.956;2023-06-04T00:42:52;101765.20;;;5.92;64.54
77011;BME280;65945;53.148;17.956;2023-06-04T00:45:19;101762.63;;;5.89;64.51
77011;BME280;65945;53.148;17.956;2023-06-04T00:47:46;101763.27;;;5.87;64.64
77011;BME280;65945;53.148;17.956;2023-06-04T00:50:13;101760.70;;;5.85;64.42
77011;BME280;65945;53.148;17.956;2023-06-04T00:52:40;101759.23;;;5.82;64.82
77011;BME280;65945;53.148;17.956;2023-06-04T00:55:08;101762.38;;;5.78;65.25
77011;BME280;65945;53.148;17.956;2023-06-04T00:57:37;101763.02;;;5.71;65.85
77011;BME280;65945;53.148;17.956;2023-06-04T01:00:04;101763.77;;;5.64;66.13
77011;BME280;65945;53.148;17.956;2023-06-04T01:02:33;101760.58;;;5.57;66.21
77011;BME280;65945;53.148;17.956;2023-06-04T01:07:52;101756.31;;;5.49;66.72
77011;BME280;65945;53.148;17.956;2023-06-04T01:10:19;101755.39;;;5.46;66.72
77011;BME280;65945;53.148;17.956;2023-06-04T01:12:46;101754.77;;;5.45;66.56
77011;BME280;65945;53.148;17.956;2023-06-04T01:15:14;101755.60;;;5.44;66.30
77011;BME280;65945;53.148;17.956;2023-06-04T01:17:42;101754.73;;;5.42;66.24
77011;BME280;65945;53.148;17.956;2023-06-04T01:25:24;101760.41;;;5.35;66.25
77011;BME280;65945;53.148;17.956;2023-06-04T01:27:55;101762.41;;;5.31;66.49
77011;BME280;65945;53.148;17.956;2023-06-04T01:30:26;101766.59;;;5.29;66.83
77011;BME280;65945;53.148;17.956;2023-06-04T01:32:57;101765.13;;;5.23;67.18
77011;BME280;65945;53.148;17.956;2023-06-04T01:35:25;101766.79;;;5.19;67.27
77011;BME280;65945;53.148;17.956;2023-06-04T01:37:52;101766.21;;;5.14;67.18
77011;BME280;65945;53.148;17.956;2023-06-04T01:40:19;101765.77;;;5.08;67.84
77011;BME280;65945;53.148;17.956;2023-06-04T01:42:46;101761.02;;;5.02;68.02
77011;BME280;65945;53.148;17.956;2023-06-04T01:45:13;101758.77;;;4.97;68.20
77011;BME280;65945;53.148;17.956;2023-06-04T01:47:39;101761.60;;;4.91;68.30
77011;BME280;65945;53.148;17.956;2023-06-04T01:50:07;101763.48;;;4.87;68.37
77011;BME280;65945;53.148;17.956;2023-06-04T01:52:37;101762.67;;;4.85;68.43
77011;BME280;65945;53.148;17.956;2023-06-04T01:55:05;101763.73;;;4.86;68.27
77011;BME280;65945;53.148;17.956;2023-06-04T01:57:34;101760.66;;;4.85;68.47
77011;BME280;65945;53.148;17.956;2023-06-04T02:00:06;101760.90;;;4.84;68.15
77011;BME280;65945;53.148;17.956;2023-06-04T02:02:41;101758.01;;;4.81;68.36
77011;BME280;65945;53.148;17.956;2023-06-04T02:05:09;101761.36;;;4.80;68.22
77011;BME280;65945;53.148;17.956;2023-06-04T02:07:38;101764.61;;;4.79;68.68
77011;BME280;65945;53.148;17.956;2023-06-04T02:12:32;101770.45;;;4.74;68.49
77011;BME280;65945;53.148;17.956;2023-06-04T02:14:59;101769.85;;;4.72;69.22
77011;BME280;65945;53.148;17.956;2023-06-04T02:17:26;101765.83;;;4.66;69.31
77011;BME280;65945;53.148;17.956;2023-06-04T02:19:52;101763.48;;;4.62;69.07
77011;BME280;65945;53.148;17.956;2023-06-04T02:22:19;101764.89;;;4.61;69.03
77011;BME280;65945;53.148;17.956;2023-06-04T02:24:46;101764.32;;;4.59;69.19
77011;BME280;65945;53.148;17.956;2023-06-04T02:27:14;101763.36;;;4.55;69.79
77011;BME280;65945;53.148;17.956;2023-06-04T02:29:41;101765.80;;;4.51;69.36
77011;BME280;65945;53.148;17.956;2023-06-04T02:32:09;101761.80;;;4.48;69.60
77011;BME280;65945;53.148;17.956;2023-06-04T02:34:36;101766.00;;;4.47;69.59
77011;BME280;65945;53.148;17.956;2023-06-04T02:37:03;101765.07;;;4.44;69.78
77011;BME280;65945;53.148;17.956;2023-06-04T02:39:30;101766.06;;;4.42;69.65
77011;BME280;65945;53.148;17.956;2023-06-04T02:41:57;101766.11;;;4.41;69.54
77011;BME280;65945;53.148;17.956;2023-06-04T02:44:23;101771.61;;;4.42;69.91
77011;BME280;65945;53.148;17.956;2023-06-04T02:46:50;101772.08;;;4.44;70.23
77011;BME280;65945;53.148;17.956;2023-06-04T02:49:17;101768.41;;;4.49;69.77
77011;BME280;65945;53.148;17.956;2023-06-04T02:51:44;101772.17;;;4.59;69.86
77011;BME280;65945;53.148;17.956;2023-06-04T02:54:11;101764.89;;;4.65;69.73
77011;BME280;65945;53.148;17.956;2023-06-04T02:56:37;101764.24;;;4.71;69.59
77011;BME280;65945;53.148;17.956;2023-06-04T02:59:04;101762.05;;;4.76;70.06
77011;BME280;65945;53.148;17.956;2023-06-04T03:01:31;101762.80;;;4.80;69.59
77011;BME280;65945;53.148;17.956;2023-06-04T03:03:58;101761.65;;;4.87;69.32
77011;BME280;65945;53.148;17.956;2023-06-04T03:06:24;101760.01;;;4.98;69.66
77011;BME280;65945;53.148;17.956;2023-06-04T03:08:53;101758.80;;;5.10;69.25
77011;BME280;65945;53.148;17.956;2023-06-04T03:11:20;101755.95;;;5.23;68.88
77011;BME280;65945;53.148;17.956;2023-06-04T03:13:49;101755.39;;;5.39;69.07
77011;BME280;65945;53.148;17.956;2023-06-04T03:16:16;101755.23;;;5.54;68.76
77011;BME280;65945;53.148;17.956;2023-06-04T03:18:42;101762.95;;;5.70;68.53
77011;BME280;65945;53.148;17.956;2023-06-04T03:21:10;101763.67;;;5.83;68.21
77011;BME280;65945;53.148;17.956;2023-06-04T03:23:40;101766.33;;;5.90;68.37
77011;BME280;65945;53.148;17.956;2023-06-04T03:26:07;101768.27;;;5.95;68.33
77011;BME280;65945;53.148;17.956;2023-06-04T03:28:35;101772.26;;;5.92;68.69
77011;BME280;65945;53.148;17.956;2023-06-04T03:31:04;101773.49;;;5.87;68.41
77011;BME280;65945;53.148;17.956;2023-06-04T03:33:31;101769.48;;;5.83;68.70
77011;BME280;65945;53.148;17.956;2023-06-04T03:35:58;101769.48;;;5.81;68.77
77011;BME280;65945;53.148;17.956;2023-06-04T03:38:25;101768.80;;;5.77;68.73
77011;BME280;65945;53.148;17.956;2023-06-04T03:40:52;101766.27;;;5.77;68.62
77011;BME280;65945;53.148;17.956;2023-06-04T03:43:20;101764.25;;;5.80;68.72
77011;BME280;65945;53.148;17.956;2023-06-04T03:45:47;101764.80;;;5.83;68.73
77011;BME280;65945;53.148;17.956;2023-06-04T03:48:14;101762.02;;;5.84;69.27
77011;BME280;65945;53.148;17.956;2023-06-04T03:50:42;101762.05;;;5.86;68.97
77011;BME280;65945;53.148;17.956;2023-06-04T03:53:12;101762.25;;;5.91;68.97
77011;BME280;65945;53.148;17.956;2023-06-04T03:55:39;101763.70;;;5.99;68.95
77011;BME280;65945;53.148;17.956;2023-06-04T03:58:07;101763.92;;;6.07;68.82
77011;BME280;65945;53.148;17.956;2023-06-04T04:00:36;101763.48;;;6.16;68.68
77011;BME280;65945;53.148;17.956;2023-06-04T04:03:03;101765.98;;;6.28;68.71
77011;BME280;65945;53.148;17.956;2023-06-04T04:05:30;101765.27;;;6.43;68.42
77011;BME280;65945;53.148;17.956;2023-06-04T04:07:57;101763.52;;;6.57;68.40
77011;BME280;65945;53.148;17.956;2023-06-04T04:10:27;101766.27;;;6.68;68.44
77011;BME280;65945;53.148;17.956;2023-06-04T04:12:54;101762.13;;;6.78;68.07
77011;BME280;65945;53.148;17.956;2023-06-04T04:15:24;101764.04;;;6.90;68.09
77011;BME280;65945;53.148;17.956;2023-06-04T04:17:51;101764.73;;;7.01;68.10
77011;BME280;65945;53.148;17.956;2023-06-04T04:20:17;101760.74;;;7.13;67.78
77011;BME280;65945;53.148;17.956;2023-06-04T04:22:49;101761.45;;;7.26;68.08
77011;BME280;65945;53.148;17.956;2023-06-04T04:25:16;101762.38;;;7.39;68.05
77011;BME280;65945;53.148;17.956;2023-06-04T04:27:43;101756.02;;;7.52;68.21
77011;BME280;65945;53.148;17.956;2023-06-04T04:30:11;101755.95;;;7.65;67.94
77011;BME280;65945;53.148;17.956;2023-06-04T04:32:41;101756.41;;;7.82;67.87
77011;BME280;65945;53.148;17.956;2023-06-04T04:35:17;101758.67;;;7.99;68.00
77011;BME280;65945;53.148;17.956;2023-06-04T04:37:45;101758.06;;;8.16;67.64
77011;BME280;65945;53.148;17.956;2023-06-04T04:40:12;101758.80;;;8.34;67.68
77011;BME280;65945;53.148;17.956;2023-06-04T04:42:40;101757.52;;;8.50;67.46
77011;BME280;65945;53.148;17.956;2023-06-04T04:45:09;101760.54;;;8.69;67.42
77011;BME280;65945;53.148;17.956;2023-06-04T04:47:37;101757.31;;;8.86;67.16
77011;BME280;65945;53.148;17.956;2023-06-04T04:50:05;101755.52;;;9.03;67.04
77011;BME280;65945;53.148;17.956;2023-06-04T04:52:32;101755.54;;;9.21;66.67
77011;BME280;65945;53.148;17.956;2023-06-04T04:54:59;101758.30;;;9.39;66.18
77011;BME280;65945;53.148;17.956;2023-06-04T04:57:27;101760.08;;;9.59;65.76
77011;BME280;65945;53.148;17.956;2023-06-04T04:59:54;101759.86;;;9.79;65.27
77011;BME280;65945;53.148;17.956;2023-06-04T05:02:21;101762.19;;;9.98;64.90
77011;BME280;65945;53.148;17.956;2023-06-04T05:04:48;101762.55;;;10.17;64.59
77011;BME280;65945;53.148;17.956;2023-06-04T05:07:15;101765.50;;;10.37;63.92
77011;BME280;65945;53.148;17.956;2023-06-04T05:09:42;101765.23;;;10.54;63.69
77011;BME280;65945;53.148;17.956;2023-06-04T05:12:09;101768.69;;;10.72;63.33
77011;BME280;65945;53.148;17.956;2023-06-04T05:14:38;101768.52;;;10.90;63.06
77011;BME280;65945;53.148;17.956;2023-06-04T05:17:05;101769.77;;;11.06;62.51
77011;BME280;65945;53.148;17.956;2023-06-04T05:19:33;101776.61;;;11.22;61.91
77011;BME280;65945;53.148;17.956;2023-06-04T05:22:00;101778.52;;;11.39;61.65
77011;BME280;65945;53.148;17.956;2023-06-04T05:24:30;101779.84;;;11.55;61.30
77011;BME280;65945;53.148;17.956;2023-06-04T05:26:59;101780.73;;;11.71;60.70
77011;BME280;65945;53.148;17.956;2023-06-04T05:29:25;101778.48;;;11.86;60.58
77011;BME280;65945;53.148;17.956;2023-06-04T05:31:53;101773.19;;;12.04;60.17
77011;BME280;65945;53.148;17.956;2023-06-04T05:34:20;101772.09;;;12.24;59.64
77011;BME280;65945;53.148;17.956;2023-06-04T05:36:48;101775.48;;;12.40;59.00
77011;BME280;65945;53.148;17.956;2023-06-04T05:39:14;101778.05;;;12.58;58.58
77011;BME280;65945;53.148;17.956;2023-06-04T05:41:49;101780.55;;;12.77;58.35
77011;BME280;65945;53.148;17.956;2023-06-04T05:44:16;101782.91;;;12.94;57.83
77011;BME280;65945;53.148;17.956;2023-06-04T05:46:43;101788.16;;;13.09;57.48
77011;BME280;65945;53.148;17.956;2023-06-04T05:49:09;101788.29;;;13.24;57.04
77011;BME280;65945;53.148;17.956;2023-06-04T05:51:36;101789.85;;;13.39;56.70
77011;BME280;65945;53.148;17.956;2023-06-04T05:54:03;101792.35;;;13.53;56.28
77011;BME280;65945;53.148;17.956;2023-06-04T05:56:30;101792.07;;;13.68;55.82
77011;BME280;65945;53.148;17.956;2023-06-04T05:58:57;101797.78;;;13.86;55.52
77011;BME280;65945;53.148;17.956;2023-06-04T06:01:25;101797.84;;;14.06;55.35
77011;BME280;65945;53.148;17.956;2023-06-04T06:03:52;101797.33;;;14.24;54.71
77011;BME280;65945;53.148;17.956;2023-06-04T06:06:19;101795.65;;;14.43;54.25
77011;BME280;65945;53.148;17.956;2023-06-04T06:08:47;101795.61;;;14.61;53.62
77011;BME280;65945;53.148;17.956;2023-06-04T06:11:15;101795.21;;;14.76;52.45
77011;BME280;65945;53.148;17.956;2023-06-04T06:13:41;101799.12;;;14.92;52.45
77011;BME280;65945;53.148;17.956;2023-06-04T06:16:09;101797.89;;;15.10;50.03
77011;BME280;65945;53.148;17.956;2023-06-04T06:18:36;101801.39;;;15.22;51.02
77011;BME280;65945;53.148;17.956;2023-06-04T06:21:03;101804.98;;;15.36;50.60
77011;BME280;65945;53.148;17.956;2023-06-04T06:23:29;101805.80;;;15.51;49.27
77011;BME280;65945;53.148;17.956;2023-06-04T06:25:56;101807.65;;;15.67;48.88
77011;BME280;65945;53.148;17.956;2023-06-04T06:28:27;101806.58;;;15.84;48.57
77011;BME280;65945;53.148;17.956;2023-06-04T06:30:54;101805.92;;;16.03;48.31
77011;BME280;65945;53.148;17.956;2023-06-04T06:33:21;101804.21;;;16.20;46.55
77011;BME280;65945;53.148;17.956;2023-06-04T06:35:50;101805.16;;;16.35;46.97
77011;BME280;65945;53.148;17.956;2023-06-04T06:38:17;101805.60;;;16.51;46.27
77011;BME280;65945;53.148;17.956;2023-06-04T06:40:43;101801.35;;;16.65;46.22
77011;BME280;65945;53.148;17.956;2023-06-04T06:43:10;101805.87;;;16.77;45.48
77011;BME280;65945;53.148;17.956;2023-06-04T06:45:36;101805.42;;;16.89;43.40
77011;BME280;65945;53.148;17.956;2023-06-04T06:48:04;101804.60;;;16.97;42.83
77011;BME280;65945;53.148;17.956;2023-06-04T06:50:30;101799.68;;;17.09;43.10
77011;BME280;65945;53.148;17.956;2023-06-04T06:52:57;101800.23;;;17.22;41.85
77011;BME280;65945;53.148;17.956;2023-06-04T06:55:23;101798.55;;;17.35;42.76
77011;BME280;65945;53.148;17.956;2023-06-04T06:57:50;101799.41;;;17.47;39.75
77011;BME280;65945;53.148;17.956;2023-06-04T07:00:17;101799.31;;;17.52;40.17
77011;BME280;65945;53.148;17.956;2023-06-04T07:02:43;101800.68;;;17.63;39.34
77011;BME280;65945;53.148;17.956;2023-06-04T07:05:11;101804.39;;;17.76;40.09
77011;BME280;65945;53.148;17.956;2023-06-04T07:07:38;101800.09;;;17.87;40.16
77011;BME280;65945;53.148;17.956;2023-06-04T07:10:04;101801.37;;;17.99;39.15
77011;BME280;65945;53.148;17.956;2023-06-04T07:12:31;101796.60;;;18.10;39.89
77011;BME280;65945;53.148;17.956;2023-06-04T07:14:58;101801.98;;;18.24;39.67
77011;BME280;65945;53.148;17.956;2023-06-04T07:17:24;101801.89;;;18.38;39.16
77011;BME280;65945;53.148;17.956;2023-06-04T07:19:51;101801.85;;;18.49;38.81
77011;BME280;65945;53.148;17.956;2023-06-04T07:22:17;101795.80;;;18.59;38.10
77011;BME280;65945;53.148;17.956;2023-06-04T07:24:44;101800.02;;;18.65;37.04
77011;BME280;65945;53.148;17.956;2023-06-04T07:27:12;101800.91;;;18.72;37.31
77011;BME280;65945;53.148;17.956;2023-06-04T07:29:39;101795.23;;;18.79;37.15
77011;BME280;65945;53.148;17.956;2023-06-04T07:32:06;101797.79;;;18.91;37.05
77011;BME280;65945;53.148;17.956;2023-06-04T07:34:33;101798.44;;;18.96;33.81
77011;BME280;65945;53.148;17.956;2023-06-04T07:36:59;101797.83;;;18.85;33.63
77011;BME280;65945;53.148;17.956;2023-06-04T07:39:26;101797.63;;;18.80;34.87
77011;BME280;65945;53.148;17.956;2023-06-04T07:41:53;101795.02;;;18.84;34.82
77011;BME280;65945;53.148;17.956;2023-06-04T07:44:20;101798.02;;;18.91;34.57
77011;BME280;65945;53.148;17.956;2023-06-04T07:46:47;101795.02;;;18.95;34.73
77011;BME280;65945;53.148;17.956;2023-06-04T07:49:13;101794.36;;;19.02;34.72
77011;BME280;65945;53.148;17.956;2023-06-04T07:51:40;101796.90;;;19.14;34.49
77011;BME280;65945;53.148;17.956;2023-06-04T07:54:07;101791.99;;;19.24;33.25
77011;BME280;65945;53.148;17.956;2023-06-04T07:56:33;101793.52;;;19.18;32.68
77011;BME280;65945;53.148;17.956;2023-06-04T07:59:00;101788.91;;;19.09;33.07
77011;BME280;65945;53.148;17.956;2023-06-04T08:01:27;101787.27;;;19.08;33.42
77011;BME280;65945;53.148;17.956;2023-06-04T08:03:55;101790.64;;;19.14;33.52
77011;BME280;65945;53.148;17.956;2023-06-04T08:06:22;101789.53;;;19.26;33.07
77011;BME280;65945;53.148;17.956;2023-06-04T08:08:50;101791.94;;;19.42;33.20
77011;BME280;65945;53.148;17.956;2023-06-04T08:11:17;101789.05;;;19.54;32.67
77011;BME280;65945;53.148;17.956;2023-06-04T08:13:44;101792.09;;;19.65;33.07
77011;BME280;65945;53.148;17.956;2023-06-04T08:16:11;101789.96;;;19.77;32.51
77011;BME280;65945;53.148;17.956;2023-06-04T08:18:38;101792.13;;;19.84;32.70
77011;BME280;65945;53.148;17.956;2023-06-04T08:21:09;101791.84;;;19.96;32.89
77011;BME280;65945;53.148;17.956;2023-06-04T08:23:37;101790.54;;;20.08;32.57
77011;BME280;65945;53.148;17.956;2023-06-04T08:26:05;101789.95;;;20.20;32.81
77011;BME280;65945;53.148;17.956;2023-06-04T08:28:32;101787.77;;;20.28;31.78
77011;BME280;65945;53.148;17.956;2023-06-04T08:30:59;101784.52;;;20.24;29.68
77011;BME280;65945;53.148;17.956;2023-06-04T08:33:25;101784.33;;;20.05;29.53
77011;BME280;65945;53.148;17.956;2023-06-04T08:35:52;101785.48;;;19.98;29.06
77011;BME280;65945;53.148;17.956;2023-06-04T08:38:19;101782.92;;;19.96;28.98
77011;BME280;65945;53.148;17.956;2023-06-04T08:40:49;101781.17;;;19.76;28.30
77011;BME280;65945;53.148;17.956;2023-06-04T08:43:19;101780.48;;;19.80;31.75
77011;BME280;65945;53.148;17.956;2023-06-04T08:45:49;101786.17;;;19.96;28.59
77011;BME280;65945;53.148;17.956;2023-06-04T08:48:18;101783.06;;;19.87;28.44
77011;BME280;65945;53.148;17.956;2023-06-04T08:50:47;101781.21;;;19.87;29.92
77011;BME280;65945;53.148;17.956;2023-06-04T08:53:15;101783.45;;;19.84;27.48
77011;BME280;65945;53.148;17.956;2023-06-04T08:55:42;101783.17;;;19.64;27.66
77011;BME280;65945;53.148;17.956;2023-06-04T08:58:10;101783.04;;;19.46;27.82
77011;BME280;65945;53.148;17.956;2023-06-04T09:00:37;101787.45;;;19.42;28.42
77011;BME280;65945;53.148;17.956;2023-06-04T09:03:04;101782.09;;;19.43;28.41
77011;BME280;65945;53.148;17.956;2023-06-04T09:05:31;101783.85;;;19.35;28.22
77011;BME280;65945;53.148;17.956;2023-06-04T09:08:00;101782.36;;;19.32;28.60
77011;BME280;65945;53.148;17.956;2023-06-04T09:10:29;101778.63;;;19.30;28.49
77011;BME280;65945;53.148;17.956;2023-06-04T09:12:57;101775.58;;;19.28;28.67
77011;BME280;65945;53.148;17.956;2023-06-04T09:15:27;101779.24;;;19.48;30.01
77011;BME280;65945;53.148;17.956;2023-06-04T09:17:54;101776.90;;;19.71;29.45
77011;BME280;65945;53.148;17.956;2023-06-04T09:20:22;101776.48;;;19.92;29.76
77011;BME280;65945;53.148;17.956;2023-06-04T09:22:49;101777.21;;;20.20;30.30
77011;BME280;65945;53.148;17.956;2023-06-04T09:27:48;101777.58;;;20.67;28.50
77011;BME280;65945;53.148;17.956;2023-06-04T09:30:15;101770.05;;;20.64;28.69
77011;BME280;65945;53.148;17.956;2023-06-04T09:32:42;101768.09;;;20.68;29.31
77011;BME280;65945;53.148;17.956;2023-06-04T09:35:17;101768.83;;;20.86;29.41
77011;BME280;65945;53.148;17.956;2023-06-04T09:37:55;101763.44;;;21.07;28.66
77011;BME280;65945;53.148;17.956;2023-06-04T09:40:22;101764.69;;;21.22;28.72
77011;BME280;65945;53.148;17.956;2023-06-04T09:42:50;101761.94;;;21.32;28.02
77011;BME280;65945;53.148;17.956;2023-06-04T09:45:32;101763.40;;;21.34;28.10
77011;BME280;65945;53.148;17.956;2023-06-04T09:48:00;101759.47;;;21.42;27.97
77011;BME280;65945;53.148;17.956;2023-06-04T09:50:30;101766.88;;;21.51;28.20
77011;BME280;65945;53.148;17.956;2023-06-04T09:52:57;101763.93;;;21.62;28.01
77011;BME280;65945;53.148;17.956;2023-06-04T09:55:23;101760.32;;;21.69;27.84
77011;BME280;65945;53.148;17.956;2023-06-04T09:57:52;101756.71;;;21.74;27.70
77011;BME280;65945;53.148;17.956;2023-06-04T10:00:21;101752.95;;;21.76;27.32
77011;BME280;65945;53.148;17.956;2023-06-04T10:02:50;101748.06;;;21.75;27.17
77011;BME280;65945;53.148;17.956;2023-06-04T10:05:18;101750.35;;;21.71;27.16
77011;BME280;65945;53.148;17.956;2023-06-04T10:07:50;101751.26;;;21.63;26.52
77011;BME280;65945;53.148;17.956;2023-06-04T10:10:25;101742.16;;;21.35;26.41
77011;BME280;65945;53.148;17.956;2023-06-04T10:13:00;101744.21;;;21.29;27.25
77011;BME280;65945;53.148;17.956;2023-06-04T10:15:30;101742.00;;;21.36;27.45
77011;BME280;65945;53.148;17.956;2023-06-04T10:17:58;101740.25;;;21.43;27.11
77011;BME280;65945;53.148;17.956;2023-06-04T10:20:26;101741.04;;;21.53;27.51
77011;BME280;65945;53.148;17.956;2023-06-04T10:22:53;101743.77;;;21.64;26.70
77011;BME280;65945;53.148;17.956;2023-06-04T10:25:21;101741.47;;;21.73;27.17
77011;BME280;65945;53.148;17.956;2023-06-04T10:27:50;101748.67;;;21.82;26.70
77011;BME280;65945;53.148;17.956;2023-06-04T10:30:17;101748.70;;;21.74;25.88
77011;BME280;65945;53.148;17.956;2023-06-04T10:32:45;101748.77;;;21.62;26.48
77011;BME280;65945;53.148;17.956;2023-06-04T10:35:13;101751.09;;;21.63;27.23
77011;BME280;65945;53.148;17.956;2023-06-04T10:37:41;101748.64;;;21.69;26.41
77011;BME280;65945;53.148;17.956;2023-06-04T10:40:08;101748.38;;;21.74;26.73
77011;BME280;65945;53.148;17.956;2023-06-04T10:42:40;101750.40;;;21.89;26.94
77011;BME280;65945;53.148;17.956;2023-06-04T10:45:08;101745.29;;;22.07;26.93
77011;BME280;65945;53.148;17.956;2023-06-04T10:47:36;101744.62;;;22.21;26.48
77011;BME280;65945;53.148;17.956;2023-06-04T10:50:09;101743.09;;;22.26;26.58
77011;BME280;65945;53.148;17.956;2023-06-04T10:52:55;101748.55;;;22.26;26.33
77011;BME280;65945;53.148;17.956;2023-06-04T10:55:30;101741.48;;;22.24;26.26
77011;BME280;65945;53.148;17.956;2023-06-04T10:58:01;101740.50;;;22.21;26.22
77011;BME280;65945;53.148;17.956;2023-06-04T11:00:39;101739.17;;;22.12;26.24
77011;BME280;65945;53.148;17.956;2023-06-04T11:03:08;101744.33;;;22.01;26.31
77011;BME280;65945;53.148;17.956;2023-06-04T11:05:38;101743.04;;;21.96;26.47
77011;BME280;65945;53.148;17.956;2023-06-04T11:08:06;101740.83;;;21.91;26.29
77011;BME280;65945;53.148;17.956;2023-06-04T11:10:35;101738.26;;;21.92;26.45
77011;BME280;65945;53.148;17.956;2023-06-04T11:13:03;101735.46;;;22.00;26.39
77011;BME280;65945;53.148;17.956;2023-06-04T11:15:38;101736.94;;;22.10;25.80
77011;BME280;65945;53.148;17.956;2023-06-04T11:18:05;101735.48;;;21.95;25.93
77011;BME280;65945;53.148;17.956;2023-06-04T11:20:32;101733.77;;;21.88;26.56
77011;BME280;65945;53.148;17.956;2023-06-04T11:22:59;101732.55;;;21.94;26.42
77011;BME280;65945;53.148;17.956;2023-06-04T11:25:28;101733.62;;;22.07;26.69
77011;BME280;65945;53.148;17.956;2023-06-04T11:27:56;101731.55;;;22.27;26.54
77011;BME280;65945;53.148;17.956;2023-06-04T11:30:24;101725.95;;;22.37;25.29
77011;BME280;65945;53.148;17.956;2023-06-04T11:33:03;101723.38;;;22.29;25.12
77011;BME280;65945;53.148;17.956;2023-06-04T11:35:30;101719.49;;;22.09;25.19
77011;BME280;65945;53.148;17.956;2023-06-04T11:37:58;101720.88;;;21.93;25.11
77011;BME280;65945;53.148;17.956;2023-06-04T11:40:25;101716.84;;;21.81;25.15
77011;BME280;65945;53.148;17.956;2023-06-04T11:42:53;101710.20;;;21.69;25.38
77011;BME280;65945;53.148;17.956;2023-06-04T11:45:21;101715.29;;;21.67;25.64
77011;BME280;65945;53.148;17.956;2023-06-04T11:47:53;101717.52;;;21.85;26.07
77011;BME280;65945;53.148;17.956;2023-06-04T11:50:23;101716.88;;;22.06;25.84
77011;BME280;65945;53.148;17.956;2023-06-04T11:52:52;101715.66;;;22.28;25.68
77011;BME280;65945;53.148;17.956;2023-06-04T11:55:19;101712.70;;;22.43;25.12
77011;BME280;65945;53.148;17.956;2023-06-04T11:57:49;101709.59;;;22.53;25.20
77011;BME280;65945;53.148;17.956;2023-06-04T12:00:18;101712.69;;;22.69;24.41
77011;BME280;65945;53.148;17.956;2023-06-04T12:02:53;101708.17;;;22.70;24.84
77011;BME280;65945;53.148;17.956;2023-06-04T12:05:22;101701.45;;;22.77;24.86
77011;BME280;65945;53.148;17.956;2023-06-04T12:07:50;101706.88;;;22.86;24.82
77011;BME280;65945;53.148;17.956;2023-06-04T12:10:21;101704.92;;;23.00;24.79
77011;BME280;65945;53.148;17.956;2023-06-04T12:12:54;101704.04;;;23.14;24.48
77011;BME280;65945;53.148;17.956;2023-06-04T12:15:21;101704.64;;;23.27;24.81
77011;BME280;65945;53.148;17.956;2023-06-04T12:17:52;101704.89;;;23.45;25.06
77011;BME280;65945;53.148;17.956;2023-06-04T12:20:33;101704.02;;;23.67;24.35
77011;BME280;65945;53.148;17.956;2023-06-04T12:23:01;101704.36;;;23.79;23.78
77011;BME280;65945;53.148;17.956;2023-06-04T12:25:29;101704.29;;;23.84;24.04
77011;BME280;65945;53.148;17.956;2023-06-04T12:27:56;101707.38;;;23.75;22.88
77011;BME280;65945;53.148;17.956;2023-06-04T12:30:23;101706.87;;;23.53;23.64
77011;BME280;65945;53.148;17.956;2023-06-04T12:33:00;101701.20;;;23.40;23.69
77011;BME280;65945;53.148;17.956;2023-06-04T12:35:27;101706.65;;;23.42;24.05
77011;BME280;65945;53.148;17.956;2023-06-04T12:37:54;101703.43;;;23.48;23.92
77011;BME280;65945;53.148;17.956;2023-06-04T12:40:20;101700.33;;;23.57;23.86
77011;BME280;65945;53.148;17.956;2023-06-04T12:42:50;101701.61;;;23.65;24.07
77011;BME280;65945;53.148;17.956;2023-06-04T12:45:17;101701.18;;;23.77;24.27
77011;BME280;65945;53.148;17.956;2023-06-04T12:47:44;101704.63;;;23.91;23.82
77011;BME280;65945;53.148;17.956;2023-06-04T12:50:11;101704.89;;;23.94;23.12
77011;BME280;65945;53.148;17.956;2023-06-04T12:52:37;101701.65;;;23.82;23.10
77011;BME280;65945;53.148;17.956;2023-06-04T12:55:04;101710.05;;;23.74;23.10
77011;BME280;65945;53.148;17.956;2023-06-04T12:57:31;101704.71;;;23.61;23.23
77011;BME280;65945;53.148;17.956;2023-06-04T12:59:58;101707.29;;;23.46;22.91